Time;durP1;ratioP1;P1;durP2;ratioP2;P2;SDS_P1;SDS_P2;PMS_P1;PMS_P2;Temp;Humidity;BMP_temperature;BMP_pressure;BME280_temperature;BME280_humidity;BME280_pressure;Samples;Min_cycle;Max_cycle;Signal;HPM_P1;HPM_P2
2023/01/21 00:01:49;;;;;;;38.28;17.75;;;-1.20;99.90;;;;;;5047349;28;20073;-62
2023/01/21 00:04:15;;;;;;;39.58;17.17;;;-1.30;99.90;;;;;;5047490;28;20468;-61
2023/01/21 00:06:41;;;;;;;39.53;18.77;;;-1.30;99.90;;;;;;5044003;28;20041;-61
2023/01/21 00:09:07;;;;;;;39.28;19.42;;;-1.30;99.90;;;;;;5047032;28;20045;-61
2023/01/21 00:11:33;;;;;;;40.90;18.52;;;-1.30;99.90;;;;;;5045478;28;20045;-61
2023/01/21 00:13:59;;;;;;;38.60;17.65;;;-1.30;99.90;;;;;;5030637;28;20117;-60
2023/01/21 00:16:24;;;;;;;37.15;17.98;;;-1.30;99.90;;;;;;5047378;28;20041;-60
2023/01/21 00:18:50;;;;;;;39.53;18.38;;;-1.30;99.90;;;;;;5049095;28;20362;-60
2023/01/21 00:21:16;;;;;;;38.13;17.75;;;-1.10;99.90;;;;;;5046538;28;20037;-59
2023/01/21 00:23:44;;;;;;;38.45;17.58;;;-1.40;99.90;;;;;;5045993;28;20044;-60
2023/01/21 00:26:11;;;;;;;40.28;18.45;;;-1.40;99.90;;;;;;5046682;28;20056;-60
2023/01/21 00:28:37;;;;;;;38.40;17.70;;;-1.40;99.90;;;;;;5042680;28;20045;-61
2023/01/21 00:31:05;;;;;;;40.85;19.00;;;-1.40;99.90;;;;;;5047759;28;20436;-60
2023/01/21 00:33:32;;;;;;;36.65;17.50;;;-1.50;99.90;;;;;;5044277;28;20579;-61
2023/01/21 00:36:21;;;;;;;35.85;17.85;;;-1.40;99.90;;;;;;5043521;28;20037;-61
2023/01/21 00:38:50;;;;;;;43.90;18.25;;;-1.40;99.90;;;;;;5043529;28;20410;-61
2023/01/21 00:41:16;;;;;;;35.33;17.27;;;-1.50;99.90;;;;;;5041651;28;20045;-62
2023/01/21 00:43:42;;;;;;;36.17;17.38;;;-1.00;99.90;;;;;;5046326;28;20531;-61
2023/01/21 00:46:09;;;;;;;36.90;17.05;;;-1.50;99.90;;;;;;5046173;28;20261;-61
2023/01/21 00:48:36;;;;;;;38.40;18.38;;;-1.50;99.90;;;;;;5049025;28;20130;-61
2023/01/21 00:51:02;;;;;;;39.53;18.85;;;-1.50;99.90;;;;;;5045882;28;20079;-61
2023/01/21 00:53:31;;;;;;;33.28;17.52;;;-1.60;99.90;;;;;;5046166;28;20921;-61
2023/01/21 00:56:02;;;;;;;43.42;20.45;;;-1.60;99.90;;;;;;5048637;28;20057;-61
2023/01/21 00:58:28;;;;;;;45.88;20.00;;;-1.60;99.90;;;;;;5048521;28;20041;-61
2023/01/21 01:01:09;;;;;;;38.42;19.00;;;-1.60;99.90;;;;;;5047791;28;20045;-62
2023/01/21 01:03:37;;;;;;;38.70;18.75;;;-1.60;99.90;;;;;;5046221;28;20103;-62
2023/01/21 01:06:09;;;;;;;40.55;17.58;;;-1.60;99.90;;;;;;5049272;28;20045;-62
2023/01/21 01:08:35;;;;;;;37.63;18.27;;;-1.60;99.90;;;;;;5046960;28;20037;-61
2023/01/21 01:11:01;;;;;;;41.20;19.98;;;-1.40;99.90;;;;;;5047359;28;20102;-61
2023/01/21 01:13:27;;;;;;;40.28;19.05;;;-1.60;99.90;;;;;;5048503;28;20049;-60
2023/01/21 01:15:56;;;;;;;38.50;19.20;;;-1.60;99.90;;;;;;5046911;28;20033;-61
2023/01/21 01:18:23;;;;;;;47.38;21.02;;;-1.50;99.90;;;;;;5045438;28;20139;-61
2023/01/21 01:20:49;;;;;;;43.28;20.83;;;-1.50;99.90;;;;;;5044880;28;20048;-61
2023/01/21 01:23:15;;;;;;;49.28;21.65;;;-1.40;99.90;;;;;;5042737;28;20455;-60
2023/01/21 01:25:41;;;;;;;44.50;21.05;;;-1.40;99.90;;;;;;5047534;28;20290;-60
2023/01/21 01:28:07;;;;;;;47.35;21.50;;;-1.40;99.90;;;;;;5046651;28;20072;-59
2023/01/21 01:30:34;;;;;;;41.67;20.60;;;-1.30;99.90;;;;;;5047220;28;20033;-61
2023/01/21 01:33:00;;;;;;;49.47;22.10;;;-1.30;99.90;;;;;;5045382;28;20054;-61
2023/01/21 01:35:26;;;;;;;44.28;20.73;;;-1.30;99.90;;;;;;5045862;28;20128;-61
2023/01/21 01:37:52;;;;;;;46.92;21.80;;;-1.30;99.90;;;;;;5042161;28;20142;-60
2023/01/21 01:40:18;;;;;;;50.42;24.27;;;-1.30;99.90;;;;;;5045372;28;20045;-60
2023/01/21 01:42:44;;;;;;;47.78;21.90;;;-1.20;99.90;;;;;;5043574;28;20118;-61
2023/01/21 01:45:20;;;;;;;49.00;22.05;;;-1.20;99.90;;;;;;5046424;28;20055;-60
2023/01/21 01:47:59;;;;;;;50.10;22.10;;;-1.20;99.90;;;;;;5048272;28;20535;-61
2023/01/21 01:50:33;;;;;;;51.90;22.95;;;-1.20;99.90;;;;;;5048277;28;20162;-60
2023/01/21 01:53:00;;;;;;;54.53;23.52;;;-1.20;99.90;;;;;;5047115;28;20049;-60
2023/01/21 01:55:32;;;;;;;52.22;22.75;;;-1.20;99.90;;;;;;5050530;28;20106;-60
2023/01/21 01:58:01;;;;;;;58.58;24.33;;;-1.20;99.90;;;;;;5048461;28;20052;-60
2023/01/21 02:00:27;;;;;;;51.42;21.95;;;-1.10;99.90;;;;;;5050392;28;20051;-60
2023/01/21 02:05:39;;;;;;;50.78;23.15;;;-1.10;99.90;;;;;;5050896;28;20045;-60
2023/01/21 02:08:06;;;;;;;55.42;23.40;;;-1.10;99.90;;;;;;5043471;28;20037;-62
2023/01/21 02:10:33;;;;;;;52.97;23.13;;;-1.10;99.90;;;;;;5048531;28;20052;-61
2023/01/21 02:12:59;;;;;;;52.67;22.42;;;-0.80;99.90;;;;;;5048998;28;20045;-61
2023/01/21 02:15:40;;;;;;;52.05;22.60;;;-1.10;99.90;;;;;;5047525;28;20061;-61
2023/01/21 02:18:18;;;;;;;55.55;23.55;;;-1.10;99.90;;;;;;5049704;28;20044;-60
2023/01/21 02:21:04;;;;;;;50.55;23.30;;;-1.00;99.90;;;;;;5050543;28;20069;-60
2023/01/21 02:23:44;;;;;;;;;;;-1.10;99.90;;;;;;5031582;28;20505;-61
2023/01/21 02:26:13;;;;;;;46.47;22.35;;;-1.10;99.90;;;;;;5049780;28;19925;-60
2023/01/21 02:29:06;;;;;;;46.97;21.33;;;-1.10;99.90;;;;;;5046410;28;20053;-60
2023/01/21 02:32:05;;;;;;;46.63;21.98;;;-1.10;99.90;;;;;;5049245;28;20074;-61
2023/01/21 02:35:00;;;;;;;51.78;20.70;;;-1.10;99.90;;;;;;5048753;28;20044;-60
2023/01/21 02:37:32;;;;;;;50.05;22.23;;;-1.10;99.90;;;;;;5048787;28;20057;-59
2023/01/21 02:40:16;;;;;;;54.03;21.88;;;-1.10;99.90;;;;;;5049431;28;20037;-61
2023/01/21 02:42:47;;;;;;;55.88;22.40;;;-1.10;99.90;;;;;;5049914;28;20080;-61
2023/01/21 02:45:22;;;;;;;58.28;22.40;;;-1.00;99.90;;;;;;5048208;28;20060;-60
2023/01/21 02:48:04;;;;;;;51.10;21.25;;;-1.00;99.90;;;;;;5049130;28;20037;-62
2023/01/21 02:50:34;;;;;;;57.15;22.83;;;-1.00;99.90;;;;;;5048954;28;20080;-61
2023/01/21 02:53:02;;;;;;;51.28;22.15;;;-1.00;99.90;;;;;;5051892;28;20087;-61
2023/01/21 02:55:31;;;;;;;55.88;21.90;;;-1.00;99.90;;;;;;5050212;28;20052;-59
2023/01/21 02:58:19;;;;;;;52.20;21.58;;;-0.90;99.90;;;;;;5050248;28;20047;-61
2023/01/21 03:01:04;;;;;;;59.72;23.05;;;-0.80;99.90;;;;;;5050691;28;20040;-60
2023/01/21 03:03:57;;;;;;;50.85;21.70;;;-0.90;99.90;;;;;;5045643;28;20670;-59
2023/01/21 03:06:34;;;;;;;51.63;21.00;;;-0.90;99.90;;;;;;5047485;28;20127;-60
2023/01/21 03:09:12;;;;;;;58.35;22.80;;;-0.90;99.90;;;;;;5045242;28;20041;-60
2023/01/21 03:11:44;;;;;;;53.80;21.75;;;-0.80;99.90;;;;;;5048848;28;20048;-60
2023/01/21 03:17:18;;;;;;;52.70;23.08;;;-0.80;99.90;;;;;;5049612;28;20053;-64
2023/01/21 03:19:52;;;;;;;55.65;22.52;;;-0.80;99.90;;;;;;5044968;28;20048;-61
2023/01/21 03:22:23;;;;;;;59.15;22.17;;;-1.80;99.90;;;;;;5049743;28;20784;-59
2023/01/21 03:24:51;;;;;;;60.25;23.80;;;-0.70;99.90;;;;;;5014969;28;20045;-62
2023/01/21 03:27:20;;;;;;;53.03;22.42;;;-0.70;99.90;;;;;;5048761;28;20497;-61
2023/01/21 03:29:48;;;;;;;57.90;23.52;;;-0.70;99.90;;;;;;5048105;28;20064;-61
2023/01/21 03:32:16;;;;;;;63.78;23.75;;;-2.10;99.90;;;;;;5043168;28;20048;-61
2023/01/21 03:34:47;;;;;;;62.60;24.08;;;-0.70;99.90;;;;;;5046985;28;20044;-61
2023/01/21 03:37:22;;;;;;;59.20;24.25;;;-0.60;99.90;;;;;;5044124;28;20039;-61
2023/01/21 03:40:17;;;;;;;56.42;21.73;;;-0.70;99.90;;;;;;5047060;28;20052;-62
2023/01/21 03:42:46;;;;;;;48.55;22.42;;;-0.60;99.90;;;;;;5041660;28;20152;-60
2023/01/21 03:45:12;;;;;;;58.13;23.15;;;-0.60;99.90;;;;;;5046244;28;20044;-61
2023/01/21 03:47:42;;;;;;;69.13;24.75;;;-0.60;99.90;;;;;;5046769;28;20747;-61
2023/01/21 03:50:24;;;;;;;62.60;25.08;;;-0.60;99.90;;;;;;5046889;28;20362;-60
2023/01/21 03:52:50;;;;;;;63.50;23.73;;;-0.60;99.90;;;;;;5048463;28;20052;-61
2023/01/21 03:55:16;;;;;;;68.55;24.92;;;-0.60;99.90;;;;;;5047741;28;20049;-61
2023/01/21 03:57:42;;;;;;;57.08;23.50;;;-0.60;99.90;;;;;;5047481;28;20056;-61
2023/01/21 04:00:09;;;;;;;68.03;25.20;;;-0.60;99.90;;;;;;5019746;28;20107;-61
2023/01/21 04:02:35;;;;;;;58.42;24.63;;;-0.60;99.90;;;;;;5013673;28;20057;-61
2023/01/21 04:05:01;;;;;;;56.75;21.50;;;-0.50;99.90;;;;;;5015185;28;20097;-62
2023/01/21 04:07:27;;;;;;;56.50;22.17;;;-0.50;99.90;;;;;;5013995;28;21274;-62
2023/01/21 04:09:52;;;;;;;59.83;24.50;;;-0.50;99.90;;;;;;5014472;28;20057;-62
2023/01/21 04:12:18;;;;;;;52.63;22.42;;;-0.50;99.90;;;;;;5027909;28;20099;-61
2023/01/21 04:14:44;;;;;;;59.30;23.67;;;-0.30;99.90;;;;;;5045992;28;20506;-61
2023/01/21 04:17:09;;;;;;;41.45;18.52;;;-0.50;99.90;;;;;;5048622;28;20076;-61
2023/01/21 04:19:35;;;;;;;46.97;21.27;;;-0.50;99.90;;;;;;5046632;28;20063;-62
2023/01/21 04:22:01;;;;;;;49.80;21.23;;;-0.50;99.90;;;;;;5044026;28;20047;-61
2023/01/21 04:24:26;;;;;;;47.15;21.27;;;-0.50;99.90;;;;;;5044606;28;20047;-61
2023/01/21 04:26:52;;;;;;;52.30;23.23;;;-0.30;99.90;;;;;;5046522;28;20045;-61
2023/01/21 04:29:18;;;;;;;59.33;24.30;;;-0.60;99.90;;;;;;5044399;28;20048;-61
2023/01/21 04:31:44;;;;;;;51.15;23.40;;;-0.60;99.90;;;;;;5045505;28;20045;-61
2023/01/21 04:34:09;;;;;;;60.95;24.58;;;-0.60;99.90;;;;;;5047943;28;20086;-61
2023/01/21 04:36:35;;;;;;;63.75;25.52;;;-0.60;99.90;;;;;;5043722;28;20044;-61
2023/01/21 04:39:01;;;;;;;57.42;25.77;;;-0.60;99.90;;;;;;5046936;28;20073;-61
2023/01/21 04:41:27;;;;;;;64.20;26.73;;;-0.60;99.90;;;;;;5044655;28;20041;-61
2023/01/21 04:43:52;;;;;;;59.83;25.52;;;-0.70;99.90;;;;;;5044478;28;20053;-61
2023/01/21 04:46:18;;;;;;;57.47;25.13;;;-0.70;99.90;;;;;;5045091;28;20053;-61
2023/01/21 04:48:44;;;;;;;56.72;24.60;;;-0.70;99.90;;;;;;5047194;28;20048;-61
2023/01/21 04:51:10;;;;;;;60.20;26.13;;;-0.70;99.90;;;;;;5045516;28;20079;-62
2023/01/21 04:53:35;;;;;;;60.17;25.35;;;-0.70;99.90;;;;;;5045536;28;20041;-60
2023/01/21 04:56:01;;;;;;;57.17;24.60;;;-0.70;99.90;;;;;;5046112;28;20093;-60
2023/01/21 04:58:27;;;;;;;52.55;23.45;;;-0.70;99.90;;;;;;5045535;28;20049;-61
2023/01/21 05:00:55;;;;;;;64.00;25.95;;;-0.70;99.90;;;;;;5047498;28;20040;-61
2023/01/21 05:03:21;;;;;;;50.63;22.38;;;-0.70;99.90;;;;;;5046320;28;20053;-61
2023/01/21 05:05:47;;;;;;;56.50;23.90;;;-0.70;99.90;;;;;;5049398;28;20044;-61
2023/01/21 05:08:13;;;;;;;55.25;24.13;;;-0.70;99.90;;;;;;5046829;28;20044;-61
2023/01/21 05:10:39;;;;;;;59.63;24.40;;;-0.70;99.90;;;;;;5048540;28;21322;-61
2023/01/21 05:13:04;;;;;;;54.83;23.75;;;-0.60;99.90;;;;;;5044471;28;20136;-61
2023/01/21 05:15:30;;;;;;;49.72;22.58;;;-0.70;99.90;;;;;;5046612;28;20127;-60
2023/01/21 05:17:56;;;;;;;55.25;21.48;;;-0.70;99.90;;;;;;5048756;28;20048;-60
2023/01/21 05:20:22;;;;;;;52.70;23.25;;;-0.70;99.90;;;;;;5047423;28;20041;-61
2023/01/21 05:22:48;;;;;;;52.25;22.77;;;-0.60;99.90;;;;;;5050641;28;20055;-61
2023/01/21 05:25:15;;;;;;;51.67;22.20;;;-0.60;99.90;;;;;;5052406;28;20041;-61
2023/01/21 05:27:41;;;;;;;50.38;21.85;;;-0.60;99.90;;;;;;5051000;28;20041;-60
2023/01/21 05:30:08;;;;;;;54.17;23.65;;;-0.60;99.90;;;;;;5050654;28;20451;-59
2023/01/21 05:32:35;;;;;;;55.00;23.10;;;-0.60;99.90;;;;;;5033818;28;20075;-60
2023/01/21 05:35:03;;;;;;;56.22;25.05;;;-0.60;99.90;;;;;;5052042;28;20053;-61
2023/01/21 05:37:28;;;;;;;55.38;23.58;;;-0.60;99.90;;;;;;5050587;28;20037;-61
2023/01/21 05:39:54;;;;;;;52.30;23.75;;;-0.70;99.90;;;;;;5053266;28;20099;-62
2023/01/21 05:42:20;;;;;;;55.60;23.65;;;-0.70;99.90;;;;;;5050206;28;20063;-60
2023/01/21 05:44:45;;;;;;;61.60;24.10;;;-0.80;99.90;;;;;;5050591;28;20033;-60
2023/01/21 05:47:11;;;;;;;48.75;22.23;;;-0.80;99.90;;;;;;5050422;28;20068;-60
2023/01/21 05:49:37;;;;;;;57.53;24.65;;;-0.80;99.90;;;;;;5050119;28;20067;-60
2023/01/21 05:52:03;;;;;;;53.28;21.92;;;-0.80;99.90;;;;;;5049926;28;20091;-60
2023/01/21 05:54:28;;;;;;;58.08;24.52;;;-0.80;99.90;;;;;;5048988;28;20041;-62
2023/01/21 05:56:54;;;;;;;56.20;24.75;;;-0.80;99.90;;;;;;5050592;28;20115;-60
2023/01/21 05:59:20;;;;;;;54.70;23.38;;;-0.70;99.90;;;;;;5050793;28;20234;-61
2023/01/21 06:01:45;;;;;;;60.33;23.15;;;-0.70;99.90;;;;;;5050134;28;20045;-59
2023/01/21 06:04:11;;;;;;;52.47;21.52;;;-0.70;99.90;;;;;;5050643;28;20067;-60
2023/01/21 06:06:37;;;;;;;49.67;18.60;;;-0.60;99.90;;;;;;5048783;28;20040;-61
2023/01/21 06:09:03;;;;;;;49.75;17.73;;;-0.50;99.90;;;;;;5031729;28;20036;-61
2023/01/21 06:11:28;;;;;;;41.85;17.60;;;-0.50;99.90;;;;;;5045724;28;20119;-61
2023/01/21 06:13:54;;;;;;;44.53;18.67;;;-0.40;99.90;;;;;;5051441;28;20083;-61
2023/01/21 06:16:20;;;;;;;44.65;17.10;;;-0.40;99.90;;;;;;5048007;28;20919;-60
2023/01/21 06:18:45;;;;;;;51.50;20.60;;;-0.40;99.90;;;;;;5051810;28;20048;-61
2023/01/21 06:21:11;;;;;;;50.95;18.88;;;-0.30;99.90;;;;;;5049565;28;20056;-60
2023/01/21 06:23:37;;;;;;;53.22;20.05;;;-0.40;99.90;;;;;;5049049;28;20045;-60
2023/01/21 06:26:03;;;;;;;52.00;18.98;;;-0.30;99.90;;;;;;5049867;28;20156;-62
2023/01/21 06:28:29;;;;;;;46.38;18.30;;;-0.30;99.90;;;;;;5049597;28;20057;-61
2023/01/21 06:30:55;;;;;;;38.75;16.25;;;-0.30;99.90;;;;;;5052128;28;20057;-61
2023/01/21 06:33:21;;;;;;;51.08;18.73;;;-0.30;99.90;;;;;;5050162;28;20037;-60
2023/01/21 06:35:46;;;;;;;47.20;19.27;;;-0.30;99.90;;;;;;5049071;28;20108;-61
2023/01/21 06:38:12;;;;;;;47.17;18.65;;;-0.30;99.90;;;;;;5048534;28;20033;-60
2023/01/21 06:40:38;;;;;;;53.03;20.02;;;-0.30;99.90;;;;;;5051423;28;20118;-60
2023/01/21 06:43:04;;;;;;;52.03;19.48;;;-0.30;99.90;;;;;;5049755;28;20052;-60
2023/01/21 06:45:29;;;;;;;46.72;17.92;;;-0.30;99.90;;;;;;5048533;28;20041;-60
2023/01/21 06:47:55;;;;;;;63.13;20.05;;;-0.30;99.90;;;;;;5051205;28;20067;-60
2023/01/21 06:50:21;;;;;;;49.47;18.88;;;-0.30;99.90;;;;;;5047260;28;20041;-63
2023/01/21 06:52:47;;;;;;;46.70;18.63;;;0.00;99.90;;;;;;5051315;28;20523;-60
2023/01/21 06:55:14;;;;;;;63.08;21.02;;;-0.20;99.90;;;;;;5050166;28;20044;-62
2023/01/21 06:57:40;;;;;;;53.92;19.50;;;-0.30;99.90;;;;;;5050738;28;20108;-61
2023/01/21 07:00:07;;;;;;;53.38;19.52;;;-0.20;99.90;;;;;;5049818;28;20120;-60
2023/01/21 07:02:33;;;;;;;52.53;21.38;;;-0.20;99.90;;;;;;5049898;28;20075;-61
2023/01/21 07:04:59;;;;;;;51.88;20.73;;;-0.20;99.90;;;;;;5049438;28;20044;-61
2023/01/21 07:07:25;;;;;;;59.88;22.33;;;-0.20;99.90;;;;;;5031505;28;20041;-62
2023/01/21 07:09:50;;;;;;;60.15;21.92;;;0.10;99.90;;;;;;5051684;28;20124;-61
2023/01/21 07:12:16;;;;;;;50.72;20.08;;;-0.20;99.90;;;;;;5050120;28;20079;-61
2023/01/21 07:14:42;;;;;;;51.85;20.65;;;-0.20;99.90;;;;;;5049714;28;20525;-61
2023/01/21 07:17:08;;;;;;;53.03;19.20;;;-0.20;99.90;;;;;;5045161;28;20041;-60
2023/01/21 07:19:33;;;;;;;58.55;21.23;;;-0.20;99.90;;;;;;5049218;28;20060;-61
2023/01/21 07:21:59;;;;;;;51.72;20.00;;;-0.20;99.90;;;;;;5049224;28;20135;-60
2023/01/21 07:24:25;;;;;;;52.13;20.88;;;-0.20;99.90;;;;;;5046986;28;20145;-61
2023/01/21 07:26:51;;;;;;;58.08;20.73;;;-0.20;99.90;;;;;;5048778;28;20072;-61
2023/01/21 07:29:16;;;;;;;52.00;20.80;;;-0.10;99.90;;;;;;5049334;28;20056;-60
2023/01/21 07:31:42;;;;;;;49.72;18.60;;;-0.10;99.90;;;;;;5047023;28;20506;-60
2023/01/21 07:34:08;;;;;;;52.55;19.65;;;1.30;99.90;;;;;;5048561;28;20053;-61
2023/01/21 07:36:33;;;;;;;49.53;18.60;;;-0.10;99.90;;;;;;5047519;28;20068;-61
2023/01/21 07:38:59;;;;;;;47.28;19.45;;;-0.10;99.90;;;;;;5048407;28;20048;-61
2023/01/21 07:41:25;;;;;;;50.50;19.77;;;-0.10;99.90;;;;;;5049025;28;20048;-61
2023/01/21 07:43:51;;;;;;;49.90;19.65;;;-0.10;99.90;;;;;;5050485;28;20053;-59
2023/01/21 07:46:18;;;;;;;52.20;18.48;;;-0.10;99.90;;;;;;5046075;28;20481;-62
2023/01/21 07:48:47;;;;;;;55.35;20.05;;;-0.10;99.90;;;;;;5031060;28;20607;-61
2023/01/21 07:51:13;;;;;;;53.42;20.63;;;-0.10;99.90;;;;;;5046187;28;20045;-61
2023/01/21 07:53:38;;;;;;;54.22;20.48;;;-0.10;99.90;;;;;;5047377;28;20053;-61
2023/01/21 07:56:09;;;;;;;55.30;20.00;;;-0.10;99.90;;;;;;5049108;28;20274;-60
2023/01/21 07:58:35;;;;;;;55.20;20.20;;;-0.10;99.90;;;;;;5048832;28;20090;-61
2023/01/21 08:01:08;;;;;;;49.95;19.38;;;-0.10;99.90;;;;;;5030716;28;20049;-61
2023/01/21 08:03:35;;;;;;;52.15;20.02;;;0.00;99.90;;;;;;5048162;28;20048;-61
2023/01/21 08:06:01;;;;;;;52.47;19.77;;;-0.10;99.90;;;;;;5045202;28;20038;-60
2023/01/21 08:08:26;;;;;;;55.03;19.83;;;-0.10;99.90;;;;;;5040679;28;20464;-61
2023/01/21 08:10:53;;;;;;;53.75;20.42;;;-0.10;99.90;;;;;;5043229;28;20048;-61
2023/01/21 08:13:19;;;;;;;47.17;19.98;;;-0.10;99.90;;;;;;5046342;28;20052;-61
2023/01/21 08:15:52;;;;;;;53.92;20.05;;;0.00;99.90;;;;;;5039695;28;20046;-60
2023/01/21 08:18:20;;;;;;;52.00;20.00;;;0.00;99.90;;;;;;5045239;28;20071;-61
2023/01/21 08:20:47;;;;;;;53.88;20.33;;;0.00;99.90;;;;;;5047597;28;20089;-60
2023/01/21 08:23:13;;;;;;;54.80;20.23;;;0.00;99.90;;;;;;5048144;28;20105;-60
2023/01/21 08:25:38;;;;;;;53.15;21.27;;;0.00;99.90;;;;;;5047624;28;20061;-61
2023/01/21 08:28:04;;;;;;;54.45;21.27;;;0.00;99.90;;;;;;5044865;28;20053;-61
2023/01/21 08:30:30;;;;;;;54.78;20.63;;;0.00;99.90;;;;;;5044693;28;20110;-61
2023/01/21 08:32:56;;;;;;;47.55;19.67;;;0.10;99.90;;;;;;5047343;28;20077;-61
2023/01/21 08:35:22;;;;;;;52.72;20.42;;;0.10;99.90;;;;;;5047231;28;20053;-61
2023/01/21 08:37:48;;;;;;;53.83;20.50;;;0.10;99.90;;;;;;5047318;28;20124;-61
2023/01/21 08:40:14;;;;;;;58.05;20.98;;;0.10;99.90;;;;;;5045267;28;20049;-60
2023/01/21 08:42:40;;;;;;;53.03;20.60;;;0.10;99.90;;;;;;5040297;28;20053;-62
2023/01/21 08:45:06;;;;;;;58.80;22.30;;;0.10;99.90;;;;;;5044702;28;20037;-62
2023/01/21 08:47:32;;;;;;;52.47;21.13;;;0.10;99.90;;;;;;5048498;28;20045;-59
2023/01/21 08:49:58;;;;;;;50.13;19.38;;;0.20;99.90;;;;;;5042573;28;20104;-61
2023/01/21 08:52:23;;;;;;;46.58;19.45;;;0.20;99.90;;;;;;5045387;28;20083;-64
2023/01/21 08:54:49;;;;;;;46.95;19.20;;;0.20;99.90;;;;;;5045661;28;20063;-61
2023/01/21 08:57:15;;;;;;;54.78;20.98;;;0.20;99.90;;;;;;5046257;28;20040;-61
2023/01/21 08:59:40;;;;;;;46.65;19.63;;;0.20;99.90;;;;;;5050643;28;20041;-60
2023/01/21 09:02:07;;;;;;;50.55;20.27;;;0.20;99.90;;;;;;5049594;28;20535;-61
2023/01/21 09:04:33;;;;;;;47.53;19.75;;;0.20;99.90;;;;;;5049537;28;20038;-61
2023/01/21 09:06:59;;;;;;;54.08;20.45;;;0.50;99.90;;;;;;5050678;28;20049;-61
2023/01/21 09:09:24;;;;;;;53.50;20.67;;;0.20;99.90;;;;;;5049085;28;20044;-61
2023/01/21 09:11:51;;;;;;;48.53;19.75;;;0.30;99.90;;;;;;5048049;28;20087;-60
2023/01/21 09:14:17;;;;;;;47.50;19.58;;;0.60;99.90;;;;;;5044561;28;20119;-61
2023/01/21 09:16:43;;;;;;;50.85;20.20;;;0.30;99.90;;;;;;5046951;28;20043;-60
2023/01/21 09:19:09;;;;;;;56.25;21.33;;;0.40;99.90;;;;;;5050727;28;20037;-62
2023/01/21 09:21:36;;;;;;;52.20;21.67;;;0.30;99.90;;;;;;5051187;28;20181;-61
2023/01/21 09:24:02;;;;;;;52.60;20.92;;;0.40;99.90;;;;;;5051359;28;20045;-61
2023/01/21 09:26:28;;;;;;;54.60;20.73;;;0.40;99.90;;;;;;5048561;28;20456;-61
2023/01/21 09:28:59;;;;;;;51.95;19.77;;;0.40;99.90;;;;;;5050483;28;20049;-60
2023/01/21 09:31:27;;;;;;;52.40;20.60;;;0.50;99.90;;;;;;5050004;28;20762;-61
2023/01/21 09:34:04;;;;;;;51.70;20.00;;;0.50;99.90;;;;;;5047684;28;20063;-62
2023/01/21 09:36:32;;;;;;;59.38;22.30;;;0.50;99.90;;;;;;5050344;28;20068;-62
2023/01/21 09:38:58;;;;;;;54.45;20.77;;;0.50;99.90;;;;;;5049282;28;20920;-60
2023/01/21 09:41:37;;;;;;;55.42;21.25;;;0.50;99.90;;;;;;5047690;28;20056;-62
2023/01/21 09:44:22;;;;;;;59.30;22.08;;;0.50;99.90;;;;;;5050708;28;20040;-62
2023/01/21 09:46:59;;;;;;;59.20;21.88;;;0.50;99.90;;;;;;5046364;28;20087;-59
2023/01/21 09:49:37;;;;;;;57.28;21.98;;;0.50;99.90;;;;;;5050597;28;20045;-62
2023/01/21 09:52:05;;;;;;;48.53;20.77;;;0.60;99.90;;;;;;5051465;28;20129;-61
2023/01/21 09:54:33;;;;;;;56.42;22.08;;;0.60;99.90;;;;;;5045940;28;20112;-61
2023/01/21 09:57:32;;;;;;;53.95;21.33;;;1.00;99.90;;;;;;5049451;28;20041;-61
2023/01/21 10:00:07;;;;;;;62.50;22.38;;;0.60;99.90;;;;;;5042961;28;20131;-61
2023/01/21 10:02:42;;;;;;;56.35;21.27;;;0.50;99.90;;;;;;5047911;28;20047;-61
2023/01/21 10:05:25;;;;;;;56.15;22.65;;;0.50;99.90;;;;;;5051051;28;20493;-60
2023/01/21 10:08:15;;;;;;;129.30;23.52;;;0.50;99.90;;;;;;5044900;28;20079;-61
2023/01/21 10:10:51;;;;;;;113.63;21.83;;;0.50;99.90;;;;;;5047811;28;20044;-61
2023/01/21 10:13:47;;;;;;;107.05;20.75;;;0.60;99.90;;;;;;5050571;28;20446;-60
2023/01/21 10:16:15;;;;;;;235.80;25.52;;;0.60;99.90;;;;;;5049884;28;20044;-61
2023/01/21 10:18:44;;;;;;;291.35;26.30;;;0.60;99.90;;;;;;5051530;28;20056;-61
2023/01/21 10:21:29;;;;;;;206.32;22.98;;;0.50;99.90;;;;;;5050790;28;20599;-61
2023/01/21 10:24:01;;;;;;;215.77;23.33;;;0.50;99.90;;;;;;5046374;28;20167;-61
2023/01/21 10:26:31;;;;;;;64.25;20.60;;;0.50;99.90;;;;;;5049628;28;20121;-61
2023/01/21 10:28:56;;;;;;;279.85;27.88;;;0.60;99.90;;;;;;5049097;28;20061;-61
2023/01/21 10:31:24;;;;;;;69.40;18.02;;;0.60;99.90;;;;;;5051191;28;20167;-60
2023/01/21 10:33:51;;;;;;;255.00;24.48;;;0.60;99.90;;;;;;5048611;28;20097;-61
2023/01/21 10:36:37;;;;;;;113.85;20.08;;;0.60;99.90;;;;;;5046053;28;20073;-61
2023/01/21 10:39:48;;;;;;;107.75;20.45;;;0.60;99.90;;;;;;5050648;28;20057;-61
2023/01/21 10:42:20;;;;;;;64.93;19.15;;;0.60;99.90;;;;;;5036327;28;20048;-62
2023/01/21 10:45:00;;;;;;;115.68;19.70;;;0.50;99.90;;;;;;5044995;28;20045;-62
2023/01/21 10:47:29;;;;;;;84.15;20.13;;;0.60;99.90;;;;;;5041674;28;20045;-61
2023/01/21 10:50:28;;;;;;;112.20;21.48;;;0.60;99.90;;;;;;5049519;28;20048;-61
2023/01/21 10:52:57;;;;;;;97.47;20.73;;;0.60;99.90;;;;;;5046298;28;20075;-61
2023/01/21 10:55:45;;;;;;;215.43;24.25;;;0.60;99.90;;;;;;5047443;28;20041;-61
2023/01/21 10:58:29;;;;;;;197.63;23.35;;;0.60;99.90;;;;;;5046811;28;20045;-62
2023/01/21 11:00:59;;;;;;;321.35;27.20;;;0.60;99.90;;;;;;5048651;28;20048;-61
2023/01/21 11:03:40;;;;;;;83.35;21.30;;;0.60;99.90;;;;;;5047163;28;20053;-62
2023/01/21 11:06:09;;;;;;;113.78;23.13;;;0.60;99.90;;;;;;5045316;28;20076;-61
2023/01/21 11:08:36;;;;;;;153.23;22.75;;;0.60;99.90;;;;;;5048777;28;20055;-62
2023/01/21 11:11:05;;;;;;;116.85;23.35;;;0.60;99.90;;;;;;5045705;28;20040;-61
2023/01/21 11:13:31;;;;;;;91.53;21.25;;;0.70;99.90;;;;;;5046430;28;20040;-61
2023/01/21 11:15:58;;;;;;;123.47;23.20;;;0.70;99.90;;;;;;5042375;28;20071;-62
2023/01/21 11:18:39;;;;;;;180.15;21.40;;;0.90;99.90;;;;;;5045960;28;20296;-63
2023/01/21 11:21:19;;;;;;;204.13;23.85;;;0.70;99.90;;;;;;5048336;28;20051;-62
2023/01/21 11:24:22;;;;;;;84.93;21.58;;;-0.20;99.90;;;;;;5047139;28;20074;-63
2023/01/21 11:26:57;;;;;;;134.10;21.92;;;0.70;99.90;;;;;;5047752;28;20124;-61
2023/01/21 11:29:25;;;;;;;157.60;23.33;;;0.70;99.90;;;;;;5047192;28;20412;-62
2023/01/21 11:32:21;;;;;;;190.80;24.33;;;0.80;99.90;;;;;;5047485;28;20065;-61
2023/01/21 11:34:59;;;;;;;70.75;21.65;;;0.80;99.90;;;;;;5049732;28;20056;-60
2023/01/21 11:37:26;;;;;;;69.20;23.10;;;0.80;99.90;;;;;;5043112;28;20084;-60
2023/01/21 11:39:58;;;;;;;125.00;24.40;;;0.90;99.90;;;;;;5044674;28;20033;-60
2023/01/21 11:42:25;;;;;;;62.45;22.08;;;1.00;99.90;;;;;;5048654;28;20082;-60
2023/01/21 11:45:05;;;;;;;68.07;24.55;;;1.00;99.90;;;;;;5046862;28;20555;-61
2023/01/21 11:47:47;;;;;;;80.90;21.10;;;1.00;99.90;;;;;;5044761;28;20072;-61
2023/01/21 11:50:31;;;;;;;61.63;21.50;;;1.00;99.90;;;;;;5046685;28;20682;-62
2023/01/21 11:53:06;;;;;;;48.33;19.88;;;1.10;99.90;;;;;;5044237;28;20562;-61
2023/01/21 11:55:55;;;;;;;61.70;21.92;;;1.10;99.90;;;;;;5045140;28;20040;-62
2023/01/21 11:58:31;;;;;;;56.50;20.30;;;1.10;99.90;;;;;;5045217;28;20055;-61
2023/01/21 12:01:02;;;;;;;;;;;1.20;99.90;;;;;;5049248;28;20110;-62
2023/01/21 12:03:36;;;;;;;66.38;22.73;;;1.60;99.90;;;;;;5047823;28;19979;-61
2023/01/21 12:06:02;;;;;;;51.15;20.80;;;1.30;99.90;;;;;;5045755;28;20538;-61
2023/01/21 12:08:31;;;;;;;63.00;21.27;;;1.40;99.90;;;;;;5048301;28;20045;-60
2023/01/21 12:11:02;;;;;;;42.55;20.45;;;1.40;99.90;;;;;;5042464;28;20095;-61
2023/01/21 12:13:52;;;;;;;43.40;19.50;;;1.50;99.90;;;;;;5043240;28;20053;-58
2023/01/21 12:16:27;;;;;;;37.20;18.38;;;1.50;99.90;;;;;;5046581;28;20874;-60
2023/01/21 12:19:17;;;;;;;37.00;19.30;;;1.50;99.90;;;;;;5031179;28;20504;-59
2023/01/21 12:22:22;;;;;;;34.75;17.95;;;1.50;99.90;;;;;;5044237;28;20045;-61
2023/01/21 12:24:47;;;;;;;44.95;18.90;;;1.50;99.90;;;;;;5042806;28;20048;-60
2023/01/21 12:27:34;;;;;;;38.88;18.88;;;1.50;99.90;;;;;;5044306;28;20064;-60
2023/01/21 12:29:59;;;;;;;;;;;1.60;99.90;;;;;;5047505;28;20056;-60
2023/01/21 12:32:39;;;;;;;42.30;18.03;;;1.60;99.90;;;;;;5045593;28;19924;-60
2023/01/21 12:35:46;;;;;;;39.03;19.88;;;1.50;99.90;;;;;;5048893;28;20044;-59
2023/01/21 12:38:22;;;;;;;33.78;17.92;;;1.60;99.90;;;;;;5038798;28;20041;-61
2023/01/21 12:41:03;;;;;;;28.48;15.60;;;1.50;99.90;;;;;;5042091;28;20056;-61
2023/01/21 12:43:39;;;;;;;30.67;17.13;;;1.60;99.90;;;;;;5043448;28;20049;-60
2023/01/21 12:46:33;;;;;;;30.02;17.17;;;1.60;99.90;;;;;;5037247;28;20049;-61
2023/01/21 12:49:10;;;;;;;34.22;18.58;;;1.60;99.90;;;;;;5040578;28;20080;-61
2023/01/21 12:51:41;;;;;;;39.55;18.90;;;1.60;99.90;;;;;;5038018;28;20088;-60
2023/01/21 12:54:37;;;;;;;33.45;18.13;;;1.70;99.90;;;;;;5045758;28;20041;-60